sensor_id;sensor_type;location;lat;lon;timestamp;P1;durP1;ratioP1;P2;durP2;ratioP2
21101;SDS011;10709;49.006;12.100;2023-04-07T00:00:29;12.60;;;9.20;;
21101;SDS011;10709;49.006;12.100;2023-04-07T00:02:55;15.87;;;9.50;;
21101;SDS011;10709;49.006;12.100;2023-04-07T00:05:22;16.13;;;9.60;;
21101;SDS011;10709;49.006;12.100;2023-04-07T00:07:49;14.80;;;9.60;;
21101;SDS011;10709;49.006;12.100;2023-04-07T00:10:22;12.50;;;8.97;;
21101;SDS011;10709;49.006;12.100;2023-04-07T00:12:50;13.43;;;9.00;;
21101;SDS011;10709;49.006;12.100;2023-04-07T00:15:17;12.67;;;9.10;;
21101;SDS011;10709;49.006;12.100;2023-04-07T00:17:44;13.83;;;9.47;;
21101;SDS011;10709;49.006;12.100;2023-04-07T00:20:10;16.53;;;9.63;;
21101;SDS011;10709;49.006;12.100;2023-04-07T00:22:37;15.70;;;9.20;;
21101;SDS011;10709;49.006;12.100;2023-04-07T00:25:04;16.23;;;10.70;;
21101;SDS011;10709;49.006;12.100;2023-04-07T00:27:31;14.43;;;10.50;;
21101;SDS011;10709;49.006;12.100;2023-04-07T00:29:57;14.90;;;9.67;;
21101;SDS011;10709;49.006;12.100;2023-04-07T00:32:24;14.97;;;9.10;;
21101;SDS011;10709;49.006;12.100;2023-04-07T00:34:50;12.67;;;8.97;;
21101;SDS011;10709;49.006;12.100;2023-04-07T00:37:17;12.57;;;8.77;;
21101;SDS011;10709;49.006;12.100;2023-04-07T00:39:44;14.60;;;8.63;;
21101;SDS011;10709;49.006;12.100;2023-04-07T00:42:12;12.37;;;8.70;;
21101;SDS011;10709;49.006;12.100;2023-04-07T00:44:38;11.93;;;8.40;;
21101;SDS011;10709;49.006;12.100;2023-04-07T00:47:05;12.63;;;8.40;;
21101;SDS011;10709;49.006;12.100;2023-04-07T00:49:31;13.67;;;8.73;;
21101;SDS011;10709;49.006;12.100;2023-04-07T00:51:58;12.57;;;8.23;;
21101;SDS011;10709;49.006;12.100;2023-04-07T00:54:24;12.10;;;8.70;;
21101;SDS011;10709;49.006;12.100;2023-04-07T00:56:52;13.23;;;9.00;;
21101;SDS011;10709;49.006;12.100;2023-04-07T00:59:18;12.03;;;8.30;;
21101;SDS011;10709;49.006;12.100;2023-04-07T01:04:54;12.30;;;8.60;;
21101;SDS011;10709;49.006;12.100;2023-04-07T01:07:59;14.37;;;8.90;;
21101;SDS011;10709;49.006;12.100;2023-04-07T01:10:41;13.37;;;8.50;;
21101;SDS011;10709;49.006;12.100;2023-04-07T01:13:25;13.77;;;8.70;;
21101;SDS011;10709;49.006;12.100;2023-04-07T01:15:56;13.83;;;9.33;;
21101;SDS011;10709;49.006;12.100;2023-04-07T01:18:31;14.20;;;8.60;;
21101;SDS011;10709;49.006;12.100;2023-04-07T01:21:01;12.07;;;8.33;;
21101;SDS011;10709;49.006;12.100;2023-04-07T01:26:31;14.50;;;8.97;;
21101;SDS011;10709;49.006;12.100;2023-04-07T01:31:49;11.87;;;8.47;;
21101;SDS011;10709;49.006;12.100;2023-04-07T01:34:17;14.47;;;9.30;;
21101;SDS011;10709;49.006;12.100;2023-04-07T01:36:44;11.97;;;8.83;;
21101;SDS011;10709;49.006;12.100;2023-04-07T01:39:12;11.20;;;8.60;;
21101;SDS011;10709;49.006;12.100;2023-04-07T01:41:38;12.77;;;8.47;;
21101;SDS011;10709;49.006;12.100;2023-04-07T01:44:07;11.47;;;8.40;;
21101;SDS011;10709;49.006;12.100;2023-04-07T01:46:34;13.57;;;9.00;;
21101;SDS011;10709;49.006;12.100;2023-04-07T01:49:01;12.37;;;8.90;;
21101;SDS011;10709;49.006;12.100;2023-04-07T01:51:29;13.60;;;9.00;;
21101;SDS011;10709;49.006;12.100;2023-04-07T01:53:57;13.70;;;9.20;;
21101;SDS011;10709;49.006;12.100;2023-04-07T01:56:24;15.03;;;9.20;;
21101;SDS011;10709;49.006;12.100;2023-04-07T01:58:50;13.73;;;9.33;;
21101;SDS011;10709;49.006;12.100;2023-04-07T02:01:17;13.07;;;9.33;;
21101;SDS011;10709;49.006;12.100;2023-04-07T02:06:21;15.93;;;9.63;;
21101;SDS011;10709;49.006;12.100;2023-04-07T02:08:54;11.43;;;9.10;;
21101;SDS011;10709;49.006;12.100;2023-04-07T02:11:24;13.20;;;9.10;;
21101;SDS011;10709;49.006;12.100;2023-04-07T02:13:52;13.40;;;9.63;;
21101;SDS011;10709;49.006;12.100;2023-04-07T02:16:20;14.67;;;9.40;;
21101;SDS011;10709;49.006;12.100;2023-04-07T02:18:47;13.90;;;9.83;;
21101;SDS011;10709;49.006;12.100;2023-04-07T02:21:15;14.77;;;10.10;;
21101;SDS011;10709;49.006;12.100;2023-04-07T02:23:42;13.23;;;9.83;;
21101;SDS011;10709;49.006;12.100;2023-04-07T02:26:08;14.70;;;9.90;;
21101;SDS011;10709;49.006;12.100;2023-04-07T02:28:35;17.07;;;11.20;;
21101;SDS011;10709;49.006;12.100;2023-04-07T02:31:01;15.30;;;10.13;;
21101;SDS011;10709;49.006;12.100;2023-04-07T02:33:28;16.07;;;10.60;;
21101;SDS011;10709;49.006;12.100;2023-04-07T02:35:54;15.67;;;10.13;;
21101;SDS011;10709;49.006;12.100;2023-04-07T02:38:21;15.63;;;10.70;;
21101;SDS011;10709;49.006;12.100;2023-04-07T02:40:48;14.00;;;9.57;;
21101;SDS011;10709;49.006;12.100;2023-04-07T02:43:14;15.83;;;10.20;;
21101;SDS011;10709;49.006;12.100;2023-04-07T02:45:42;17.17;;;10.80;;
21101;SDS011;10709;49.006;12.100;2023-04-07T02:48:09;14.37;;;10.53;;
21101;SDS011;10709;49.006;12.100;2023-04-07T02:50:36;15.10;;;10.33;;
21101;SDS011;10709;49.006;12.100;2023-04-07T02:53:02;16.73;;;11.13;;
21101;SDS011;10709;49.006;12.100;2023-04-07T02:55:29;15.60;;;10.10;;
21101;SDS011;10709;49.006;12.100;2023-04-07T02:57:55;13.67;;;10.40;;
21101;SDS011;10709;49.006;12.100;2023-04-07T03:00:22;15.50;;;10.23;;
21101;SDS011;10709;49.006;12.100;2023-04-07T03:02:48;17.20;;;10.97;;
21101;SDS011;10709;49.006;12.100;2023-04-07T03:05:15;14.87;;;10.13;;
21101;SDS011;10709;49.006;12.100;2023-04-07T03:07:41;13.47;;;10.30;;
21101;SDS011;10709;49.006;12.100;2023-04-07T03:10:08;15.07;;;10.40;;
21101;SDS011;10709;49.006;12.100;2023-04-07T03:12:35;13.00;;;9.83;;
21101;SDS011;10709;49.006;12.100;2023-04-07T03:15:01;13.47;;;10.07;;
21101;SDS011;10709;49.006;12.100;2023-04-07T03:17:28;12.43;;;9.53;;
21101;SDS011;10709;49.006;12.100;2023-04-07T03:19:54;14.37;;;9.87;;
21101;SDS011;10709;49.006;12.100;2023-04-07T03:22:21;15.30;;;10.17;;
21101;SDS011;10709;49.006;12.100;2023-04-07T03:24:47;14.70;;;10.27;;
21101;SDS011;10709;49.006;12.100;2023-04-07T03:27:14;13.87;;;9.40;;
21101;SDS011;10709;49.006;12.100;2023-04-07T03:29:42;15.37;;;10.20;;
21101;SDS011;10709;49.006;12.100;2023-04-07T03:32:08;13.80;;;10.40;;
21101;SDS011;10709;49.006;12.100;2023-04-07T03:34:35;15.20;;;10.00;;
21101;SDS011;10709;49.006;12.100;2023-04-07T03:37:02;16.70;;;10.53;;
21101;SDS011;10709;49.006;12.100;2023-04-07T03:39:28;14.33;;;10.47;;
21101;SDS011;10709;49.006;12.100;2023-04-07T03:41:54;14.77;;;10.67;;
21101;SDS011;10709;49.006;12.100;2023-04-07T03:44:22;13.77;;;10.10;;
21101;SDS011;10709;49.006;12.100;2023-04-07T03:46:49;14.90;;;10.47;;
21101;SDS011;10709;49.006;12.100;2023-04-07T03:49:16;14.33;;;10.70;;
21101;SDS011;10709;49.006;12.100;2023-04-07T03:51:42;15.13;;;11.00;;
21101;SDS011;10709;49.006;12.100;2023-04-07T03:54:09;13.73;;;10.10;;
21101;SDS011;10709;49.006;12.100;2023-04-07T03:56:35;17.30;;;11.13;;
21101;SDS011;10709;49.006;12.100;2023-04-07T03:59:03;14.90;;;10.00;;
21101;SDS011;10709;49.006;12.100;2023-04-07T04:01:29;17.23;;;10.43;;
21101;SDS011;10709;49.006;12.100;2023-04-07T04:03:57;14.57;;;10.60;;
21101;SDS011;10709;49.006;12.100;2023-04-07T04:06:24;14.00;;;10.50;;
21101;SDS011;10709;49.006;12.100;2023-04-07T04:08:52;15.17;;;10.27;;
21101;SDS011;10709;49.006;12.100;2023-04-07T04:11:19;14.43;;;10.20;;
21101;SDS011;10709;49.006;12.100;2023-04-07T04:13:45;14.73;;;10.23;;
21101;SDS011;10709;49.006;12.100;2023-04-07T04:16:12;15.93;;;9.77;;
21101;SDS011;10709;49.006;12.100;2023-04-07T04:18:40;14.73;;;10.63;;
21101;SDS011;10709;49.006;12.100;2023-04-07T04:21:06;15.63;;;10.70;;
21101;SDS011;10709;49.006;12.100;2023-04-07T04:23:33;17.07;;;11.40;;
21101;SDS011;10709;49.006;12.100;2023-04-07T04:25:59;17.90;;;11.57;;
21101;SDS011;10709;49.006;12.100;2023-04-07T04:28:29;14.20;;;10.37;;
21101;SDS011;10709;49.006;12.100;2023-04-07T04:30:55;14.33;;;10.23;;
21101;SDS011;10709;49.006;12.100;2023-04-07T04:33:22;16.10;;;10.07;;
21101;SDS011;10709;49.006;12.100;2023-04-07T04:35:48;15.23;;;10.63;;
21101;SDS011;10709;49.006;12.100;2023-04-07T04:38:15;15.70;;;11.03;;
21101;SDS011;10709;49.006;12.100;2023-04-07T04:40:42;14.03;;;10.80;;
21101;SDS011;10709;49.006;12.100;2023-04-07T04:43:08;14.47;;;10.23;;
21101;SDS011;10709;49.006;12.100;2023-04-07T04:45:34;18.20;;;11.53;;
21101;SDS011;10709;49.006;12.100;2023-04-07T04:48:01;14.93;;;10.83;;
21101;SDS011;10709;49.006;12.100;2023-04-07T04:50:27;16.50;;;11.80;;
21101;SDS011;10709;49.006;12.100;2023-04-07T04:52:54;17.00;;;12.50;;
21101;SDS011;10709;49.006;12.100;2023-04-07T04:55:20;16.00;;;11.50;;
21101;SDS011;10709;49.006;12.100;2023-04-07T04:57:47;14.93;;;10.80;;
21101;SDS011;10709;49.006;12.100;2023-04-07T05:00:13;15.60;;;11.07;;
21101;SDS011;10709;49.006;12.100;2023-04-07T05:02:40;15.40;;;10.87;;
21101;SDS011;10709;49.006;12.100;2023-04-07T05:05:08;15.97;;;10.87;;
21101;SDS011;10709;49.006;12.100;2023-04-07T05:07:35;14.10;;;10.20;;
21101;SDS011;10709;49.006;12.100;2023-04-07T05:10:02;14.90;;;9.87;;
21101;SDS011;10709;49.006;12.100;2023-04-07T05:12:29;10.80;;;8.87;;
21101;SDS011;10709;49.006;12.100;2023-04-07T05:14:56;11.90;;;8.80;;
21101;SDS011;10709;49.006;12.100;2023-04-07T05:17:22;13.50;;;9.93;;
21101;SDS011;10709;49.006;12.100;2023-04-07T05:19:49;12.07;;;9.43;;
21101;SDS011;10709;49.006;12.100;2023-04-07T05:22:15;13.77;;;9.83;;
21101;SDS011;10709;49.006;12.100;2023-04-07T05:24:42;13.60;;;9.63;;
21101;SDS011;10709;49.006;12.100;2023-04-07T05:27:08;13.23;;;9.50;;
21101;SDS011;10709;49.006;12.100;2023-04-07T05:29:34;12.53;;;8.90;;
21101;SDS011;10709;49.006;12.100;2023-04-07T05:32:03;12.80;;;9.70;;
21101;SDS011;10709;49.006;12.100;2023-04-07T05:34:32;13.57;;;9.63;;
21101;SDS011;10709;49.006;12.100;2023-04-07T05:36:58;12.57;;;8.80;;
21101;SDS011;10709;49.006;12.100;2023-04-07T05:39:25;12.40;;;9.37;;
21101;SDS011;10709;49.006;12.100;2023-04-07T05:41:52;11.57;;;8.67;;
21101;SDS011;10709;49.006;12.100;2023-04-07T05:44:18;13.77;;;9.40;;
21101;SDS011;10709;49.006;12.100;2023-04-07T05:46:45;11.70;;;9.30;;
21101;SDS011;10709;49.006;12.100;2023-04-07T05:49:11;14.83;;;10.80;;
21101;SDS011;10709;49.006;12.100;2023-04-07T05:51:45;12.80;;;9.87;;
21101;SDS011;10709;49.006;12.100;2023-04-07T05:54:14;14.10;;;10.27;;
21101;SDS011;10709;49.006;12.100;2023-04-07T05:56:40;14.03;;;9.80;;
21101;SDS011;10709;49.006;12.100;2023-04-07T05:59:07;15.90;;;10.33;;
21101;SDS011;10709;49.006;12.100;2023-04-07T06:01:34;13.87;;;10.20;;
21101;SDS011;10709;49.006;12.100;2023-04-07T06:04:00;13.67;;;10.43;;
21101;SDS011;10709;49.006;12.100;2023-04-07T06:06:28;13.73;;;9.63;;
21101;SDS011;10709;49.006;12.100;2023-04-07T06:08:55;12.53;;;9.70;;
21101;SDS011;10709;49.006;12.100;2023-04-07T06:11:21;13.30;;;9.97;;
21101;SDS011;10709;49.006;12.100;2023-04-07T06:13:48;12.83;;;9.20;;
21101;SDS011;10709;49.006;12.100;2023-04-07T06:16:15;13.43;;;10.37;;
21101;SDS011;10709;49.006;12.100;2023-04-07T06:18:44;14.20;;;10.33;;
21101;SDS011;10709;49.006;12.100;2023-04-07T06:21:11;12.90;;;10.13;;
21101;SDS011;10709;49.006;12.100;2023-04-07T06:23:37;13.60;;;10.87;;
21101;SDS011;10709;49.006;12.100;2023-04-07T06:26:04;14.27;;;10.47;;
21101;SDS011;10709;49.006;12.100;2023-04-07T06:28:31;15.07;;;11.10;;
21101;SDS011;10709;49.006;12.100;2023-04-07T06:30:57;13.73;;;10.57;;
21101;SDS011;10709;49.006;12.100;2023-04-07T06:33:25;14.47;;;10.50;;
21101;SDS011;10709;49.006;12.100;2023-04-07T06:35:51;14.00;;;10.43;;
21101;SDS011;10709;49.006;12.100;2023-04-07T06:38:18;15.30;;;10.50;;
21101;SDS011;10709;49.006;12.100;2023-04-07T06:40:44;12.47;;;10.27;;
21101;SDS011;10709;49.006;12.100;2023-04-07T06:43:11;15.17;;;10.60;;
21101;SDS011;10709;49.006;12.100;2023-04-07T06:45:37;13.60;;;10.70;;
21101;SDS011;10709;49.006;12.100;2023-04-07T06:48:03;16.57;;;10.97;;
21101;SDS011;10709;49.006;12.100;2023-04-07T06:50:31;14.87;;;10.87;;
21101;SDS011;10709;49.006;12.100;2023-04-07T06:52:57;13.43;;;10.70;;
21101;SDS011;10709;49.006;12.100;2023-04-07T06:55:24;15.10;;;10.63;;
21101;SDS011;10709;49.006;12.100;2023-04-07T06:57:51;14.23;;;10.77;;
21101;SDS011;10709;49.006;12.100;2023-04-07T07:00:18;13.00;;;10.43;;
21101;SDS011;10709;49.006;12.100;2023-04-07T07:02:44;12.50;;;10.53;;
21101;SDS011;10709;49.006;12.100;2023-04-07T07:05:11;12.23;;;9.90;;
21101;SDS011;10709;49.006;12.100;2023-04-07T07:07:37;15.93;;;11.57;;
21101;SDS011;10709;49.006;12.100;2023-04-07T07:10:04;15.70;;;10.77;;
21101;SDS011;10709;49.006;12.100;2023-04-07T07:12:32;12.83;;;10.67;;
21101;SDS011;10709;49.006;12.100;2023-04-07T07:14:58;13.70;;;10.33;;
21101;SDS011;10709;49.006;12.100;2023-04-07T07:17:25;13.60;;;10.83;;
21101;SDS011;10709;49.006;12.100;2023-04-07T07:19:51;16.33;;;11.67;;
21101;SDS011;10709;49.006;12.100;2023-04-07T07:22:18;15.90;;;11.13;;
21101;SDS011;10709;49.006;12.100;2023-04-07T07:24:44;15.23;;;11.00;;
21101;SDS011;10709;49.006;12.100;2023-04-07T07:27:11;14.77;;;11.40;;
21101;SDS011;10709;49.006;12.100;2023-04-07T07:29:37;16.93;;;12.00;;
21101;SDS011;10709;49.006;12.100;2023-04-07T07:32:04;15.10;;;11.60;;
21101;SDS011;10709;49.006;12.100;2023-04-07T07:34:31;17.30;;;12.13;;
21101;SDS011;10709;49.006;12.100;2023-04-07T07:36:58;15.67;;;12.00;;
21101;SDS011;10709;49.006;12.100;2023-04-07T07:39:25;14.20;;;11.43;;
21101;SDS011;10709;49.006;12.100;2023-04-07T07:41:52;16.33;;;12.10;;
21101;SDS011;10709;49.006;12.100;2023-04-07T07:44:18;17.03;;;12.13;;
21101;SDS011;10709;49.006;12.100;2023-04-07T07:46:49;15.40;;;11.70;;
21101;SDS011;10709;49.006;12.100;2023-04-07T07:49:16;14.93;;;11.80;;
21101;SDS011;10709;49.006;12.100;2023-04-07T07:51:43;16.43;;;11.87;;
21101;SDS011;10709;49.006;12.100;2023-04-07T07:54:11;17.97;;;11.60;;
21101;SDS011;10709;49.006;12.100;2023-04-07T07:56:37;18.20;;;12.50;;
21101;SDS011;10709;49.006;12.100;2023-04-07T07:59:04;14.63;;;11.20;;
21101;SDS011;10709;49.006;12.100;2023-04-07T08:01:33;16.43;;;11.63;;
21101;SDS011;10709;49.006;12.100;2023-04-07T08:04:00;15.63;;;12.03;;
21101;SDS011;10709;49.006;12.100;2023-04-07T08:06:26;17.37;;;11.93;;
21101;SDS011;10709;49.006;12.100;2023-04-07T08:08:56;16.07;;;11.90;;
21101;SDS011;10709;49.006;12.100;2023-04-07T08:11:23;16.07;;;11.73;;
21101;SDS011;10709;49.006;12.100;2023-04-07T08:13:50;17.43;;;12.27;;
21101;SDS011;10709;49.006;12.100;2023-04-07T08:16:16;16.07;;;11.87;;
21101;SDS011;10709;49.006;12.100;2023-04-07T08:18:44;15.27;;;11.53;;
21101;SDS011;10709;49.006;12.100;2023-04-07T08:21:12;15.33;;;12.07;;
21101;SDS011;10709;49.006;12.100;2023-04-07T08:23:38;15.33;;;12.07;;
21101;SDS011;10709;49.006;12.100;2023-04-07T08:26:05;16.37;;;12.10;;
21101;SDS011;10709;49.006;12.100;2023-04-07T08:28:31;17.93;;;13.63;;
21101;SDS011;10709;49.006;12.100;2023-04-07T08:30:58;18.20;;;12.97;;
21101;SDS011;10709;49.006;12.100;2023-04-07T08:33:24;16.53;;;12.23;;
21101;SDS011;10709;49.006;12.100;2023-04-07T08:35:51;18.03;;;12.00;;
21101;SDS011;10709;49.006;12.100;2023-04-07T08:38:18;18.63;;;12.37;;
21101;SDS011;10709;49.006;12.100;2023-04-07T08:40:44;16.37;;;12.57;;
21101;SDS011;10709;49.006;12.100;2023-04-07T08:43:11;18.43;;;12.73;;
21101;SDS011;10709;49.006;12.100;2023-04-07T08:45:39;16.10;;;12.20;;
21101;SDS011;10709;49.006;12.100;2023-04-07T08:48:10;17.10;;;12.10;;
21101;SDS011;10709;49.006;12.100;2023-04-07T08:50:45;16.70;;;12.47;;
21101;SDS011;10709;49.006;12.100;2023-04-07T08:53:21;16.67;;;12.13;;
21101;SDS011;10709;49.006;12.100;2023-04-07T08:55:53;18.90;;;12.30;;
21101;SDS011;10709;49.006;12.100;2023-04-07T08:58:21;17.33;;;12.47;;
21101;SDS011;10709;49.006;12.100;2023-04-07T09:00:48;18.03;;;13.03;;
21101;SDS011;10709;49.006;12.100;2023-04-07T09:03:17;15.30;;;12.23;;
21101;SDS011;10709;49.006;12.100;2023-04-07T09:05:44;16.70;;;12.80;;
21101;SDS011;10709;49.006;12.100;2023-04-07T09:08:11;16.57;;;12.37;;
21101;SDS011;10709;49.006;12.100;2023-04-07T09:10:38;18.83;;;13.67;;
21101;SDS011;10709;49.006;12.100;2023-04-07T09:13:04;16.60;;;12.97;;
21101;SDS011;10709;49.006;12.100;2023-04-07T09:15:31;19.57;;;13.30;;
21101;SDS011;10709;49.006;12.100;2023-04-07T09:17:58;17.23;;;13.20;;
21101;SDS011;10709;49.006;12.100;2023-04-07T09:20:24;19.47;;;14.10;;
21101;SDS011;10709;49.006;12.100;2023-04-07T09:22:51;19.00;;;13.53;;
21101;SDS011;10709;49.006;12.100;2023-04-07T09:25:18;18.07;;;13.57;;
21101;SDS011;10709;49.006;12.100;2023-04-07T09:27:58;18.27;;;13.73;;
21101;SDS011;10709;49.006;12.100;2023-04-07T09:30:27;19.70;;;13.77;;
21101;SDS011;10709;49.006;12.100;2023-04-07T09:32:58;17.10;;;12.40;;
21101;SDS011;10709;49.006;12.100;2023-04-07T09:35:25;17.43;;;13.20;;
21101;SDS011;10709;49.006;12.100;2023-04-07T09:38:27;17.60;;;12.57;;
21101;SDS011;10709;49.006;12.100;2023-04-07T09:40:46;16.70;;;12.47;;
21101;SDS011;10709;49.006;12.100;2023-04-07T09:43:17;19.27;;;14.00;;
21101;SDS011;10709;49.006;12.100;2023-04-07T09:45:44;19.73;;;13.93;;
21101;SDS011;10709;49.006;12.100;2023-04-07T09:48:18;20.20;;;13.80;;
21101;SDS011;10709;49.006;12.100;2023-04-07T09:50:45;19.43;;;13.87;;
21101;SDS011;10709;49.006;12.100;2023-04-07T09:53:15;20.67;;;13.43;;
21101;SDS011;10709;49.006;12.100;2023-04-07T09:55:42;18.27;;;12.77;;
21101;SDS011;10709;49.006;12.100;2023-04-07T09:58:12;18.17;;;13.80;;
21101;SDS011;10709;49.006;12.100;2023-04-07T10:00:42;20.40;;;14.03;;
21101;SDS011;10709;49.006;12.100;2023-04-07T10:03:09;16.57;;;12.93;;
21101;SDS011;10709;49.006;12.100;2023-04-07T10:05:36;16.43;;;12.07;;
21101;SDS011;10709;49.006;12.100;2023-04-07T10:08:08;20.00;;;13.67;;
21101;SDS011;10709;49.006;12.100;2023-04-07T10:10:35;18.23;;;13.77;;
21101;SDS011;10709;49.006;12.100;2023-04-07T10:13:03;19.23;;;13.30;;
21101;SDS011;10709;49.006;12.100;2023-04-07T10:15:30;20.10;;;13.43;;
21101;SDS011;10709;49.006;12.100;2023-04-07T10:17:57;18.40;;;13.93;;
21101;SDS011;10709;49.006;12.100;2023-04-07T10:20:25;20.50;;;13.70;;
21101;SDS011;10709;49.006;12.100;2023-04-07T10:22:53;18.57;;;13.73;;
21101;SDS011;10709;49.006;12.100;2023-04-07T10:25:23;18.50;;;13.43;;
21101;SDS011;10709;49.006;12.100;2023-04-07T10:27:52;16.77;;;12.90;;
21101;SDS011;10709;49.006;12.100;2023-04-07T10:30:31;17.97;;;13.33;;
21101;SDS011;10709;49.006;12.100;2023-04-07T10:32:59;17.17;;;12.87;;
21101;SDS011;10709;49.006;12.100;2023-04-07T10:35:26;20.30;;;14.13;;
21101;SDS011;10709;49.006;12.100;2023-04-07T10:40:34;19.57;;;13.27;;
21101;SDS011;10709;49.006;12.100;2023-04-07T10:43:01;19.60;;;13.60;;
21101;SDS011;10709;49.006;12.100;2023-04-07T10:48:11;17.33;;;12.97;;
21101;SDS011;10709;49.006;12.100;2023-04-07T10:50:38;19.80;;;13.57;;
21101;SDS011;10709;49.006;12.100;2023-04-07T10:53:09;19.47;;;14.07;;
21101;SDS011;10709;49.006;12.100;2023-04-07T10:55:38;18.17;;;13.73;;
21101;SDS011;10709;49.006;12.100;2023-04-07T11:03:23;19.73;;;12.87;;
21101;SDS011;10709;49.006;12.100;2023-04-07T11:05:50;20.57;;;12.77;;
21101;SDS011;10709;49.006;12.100;2023-04-07T11:11:19;16.30;;;11.67;;
21101;SDS011;10709;49.006;12.100;2023-04-07T11:13:59;15.77;;;11.70;;
21101;SDS011;10709;49.006;12.100;2023-04-07T11:16:36;17.30;;;11.87;;
21101;SDS011;10709;49.006;12.100;2023-04-07T11:19:04;15.00;;;11.73;;
21101;SDS011;10709;49.006;12.100;2023-04-07T11:21:31;14.37;;;11.37;;
21101;SDS011;10709;49.006;12.100;2023-04-07T11:23:57;16.67;;;11.60;;
21101;SDS011;10709;49.006;12.100;2023-04-07T11:26:24;18.13;;;11.97;;
21101;SDS011;10709;49.006;12.100;2023-04-07T11:28:51;16.07;;;12.10;;
21101;SDS011;10709;49.006;12.100;2023-04-07T11:31:26;15.13;;;11.33;;
21101;SDS011;10709;49.006;12.100;2023-04-07T11:38:58;15.27;;;11.53;;
21101;SDS011;10709;49.006;12.100;2023-04-07T11:41:26;15.23;;;11.10;;
21101;SDS011;10709;49.006;12.100;2023-04-07T11:44:05;14.10;;;11.17;;
21101;SDS011;10709;49.006;12.100;2023-04-07T11:46:33;15.97;;;11.70;;
21101;SDS011;10709;49.006;12.100;2023-04-07T11:49:07;15.63;;;12.17;;
21101;SDS011;10709;49.006;12.100;2023-04-07T11:51:38;17.07;;;11.83;;
21101;SDS011;10709;49.006;12.100;2023-04-07T11:54:06;15.80;;;12.50;;
21101;SDS011;10709;49.006;12.100;2023-04-07T11:56:42;15.27;;;11.83;;
21101;SDS011;10709;49.006;12.100;2023-04-07T11:59:20;19.47;;;12.43;;
21101;SDS011;10709;49.006;12.100;2023-04-07T12:01:48;17.27;;;12.50;;
21101;SDS011;10709;49.006;12.100;2023-04-07T12:04:16;18.20;;;12.80;;
21101;SDS011;10709;49.006;12.100;2023-04-07T12:06:45;15.73;;;12.00;;
21101;SDS011;10709;49.006;12.100;2023-04-07T12:09:25;16.50;;;12.23;;
21101;SDS011;10709;49.006;12.100;2023-04-07T12:11:57;16.70;;;12.40;;
21101;SDS011;10709;49.006;12.100;2023-04-07T12:14:24;19.03;;;12.23;;
21101;SDS011;10709;49.006;12.100;2023-04-07T12:16:52;14.03;;;11.57;;
21101;SDS011;10709;49.006;12.100;2023-04-07T12:19:22;13.57;;;11.13;;
21101;SDS011;10709;49.006;12.100;2023-04-07T12:21:49;18.57;;;12.80;;
21101;SDS011;10709;49.006;12.100;2023-04-07T12:24:15;15.67;;;12.43;;
21101;SDS011;10709;49.006;12.100;2023-04-07T12:26:42;19.03;;;13.10;;
21101;SDS011;10709;49.006;12.100;2023-04-07T12:29:08;17.10;;;12.37;;
21101;SDS011;10709;49.006;12.100;2023-04-07T12:31:35;16.13;;;12.63;;
21101;SDS011;10709;49.006;12.100;2023-04-07T12:34:02;18.80;;;12.87;;
21101;SDS011;10709;49.006;12.100;2023-04-07T12:36:28;15.67;;;12.30;;
21101;SDS011;10709;49.006;12.100;2023-04-07T12:38:55;15.50;;;12.23;;
21101;SDS011;10709;49.006;12.100;2023-04-07T12:41:22;14.13;;;11.27;;
21101;SDS011;10709;49.006;12.100;2023-04-07T12:43:49;18.17;;;12.67;;
21101;SDS011;10709;49.006;12.100;2023-04-07T12:46:16;15.93;;;12.80;;
21101;SDS011;10709;49.006;12.100;2023-04-07T12:48:43;14.50;;;11.87;;
21101;SDS011;10709;49.006;12.100;2023-04-07T12:51:09;16.53;;;12.03;;
21101;SDS011;10709;49.006;12.100;2023-04-07T12:53:36;16.30;;;12.23;;
21101;SDS011;10709;49.006;12.100;2023-04-07T12:56:02;14.83;;;11.70;;
21101;SDS011;10709;49.006;12.100;2023-04-07T12:58:29;14.83;;;11.03;;
21101;SDS011;10709;49.006;12.100;2023-04-07T13:00:55;13.47;;;10.63;;
21101;SDS011;10709;49.006;12.100;2023-04-07T13:03:23;14.43;;;11.73;;
21101;SDS011;10709;49.006;12.100;2023-04-07T13:05:50;14.13;;;11.63;;
21101;SDS011;10709;49.006;12.100;2023-04-07T13:08:19;15.17;;;11.87;;
21101;SDS011;10709;49.006;12.100;2023-04-07T13:10:46;15.10;;;11.30;;
21101;SDS011;10709;49.006;12.100;2023-04-07T13:13:12;15.37;;;11.50;;
21101;SDS011;10709;49.006;12.100;2023-04-07T13:15:39;14.40;;;11.10;;
21101;SDS011;10709;49.006;12.100;2023-04-07T13:18:05;11.77;;;9.50;;
21101;SDS011;10709;49.006;12.100;2023-04-07T13:20:33;14.40;;;9.90;;
21101;SDS011;10709;49.006;12.100;2023-04-07T13:22:59;14.33;;;10.13;;
21101;SDS011;10709;49.006;12.100;2023-04-07T13:25:33;12.73;;;9.87;;
21101;SDS011;10709;49.006;12.100;2023-04-07T13:27:59;13.10;;;10.23;;
21101;SDS011;10709;49.006;12.100;2023-04-07T13:30:26;13.20;;;10.53;;
21101;SDS011;10709;49.006;12.100;2023-04-07T13:32:52;14.17;;;10.80;;
21101;SDS011;10709;49.006;12.100;2023-04-07T13:35:19;14.97;;;10.97;;
21101;SDS011;10709;49.006;12.100;2023-04-07T13:37:46;13.53;;;9.47;;
21101;SDS011;10709;49.006;12.100;2023-04-07T13:40:13;11.70;;;9.33;;
21101;SDS011;10709;49.006;12.100;2023-04-07T13:42:39;12.77;;;9.93;;
21101;SDS011;10709;49.006;12.100;2023-04-07T13:45:06;12.33;;;10.33;;
21101;SDS011;10709;49.006;12.100;2023-04-07T13:47:33;13.60;;;9.83;;
21101;SDS011;10709;49.006;12.100;2023-04-07T13:50:00;13.93;;;10.13;;
21101;SDS011;10709;49.006;12.100;2023-04-07T13:52:27;13.13;;;10.70;;
21101;SDS011;10709;49.006;12.100;2023-04-07T13:54:54;14.77;;;10.50;;
21101;SDS011;10709;49.006;12.100;2023-04-07T13:57:23;12.37;;;9.83;;
21101;SDS011;10709;49.006;12.100;2023-04-07T13:59:49;12.63;;;10.13;;
21101;SDS011;10709;49.006;12.100;2023-04-07T14:02:19;12.60;;;9.30;;
21101;SDS011;10709;49.006;12.100;2023-04-07T14:04:46;12.27;;;9.50;;
21101;SDS011;10709;49.006;12.100;2023-04-07T14:07:12;12.67;;;8.77;;
21101;SDS011;10709;49.006;12.100;2023-04-07T14:09:39;13.83;;;10.40;;
21101;SDS011;10709;49.006;12.100;2023-04-07T14:12:05;12.27;;;9.87;;
21101;SDS011;10709;49.006;12.100;2023-04-07T14:14:32;13.73;;;10.43;;
21101;SDS011;10709;49.006;12.100;2023-04-07T14:16:58;13.13;;;9.37;;
21101;SDS011;10709;49.006;12.100;2023-04-07T14:19:25;12.30;;;9.43;;
21101;SDS011;10709;49.006;12.100;2023-04-07T14:21:52;12.67;;;9.40;;
21101;SDS011;10709;49.006;12.100;2023-04-07T14:24:18;12.17;;;9.80;;
21101;SDS011;10709;49.006;12.100;2023-04-07T14:26:45;11.43;;;9.17;;
21101;SDS011;10709;49.006;12.100;2023-04-07T14:29:12;15.27;;;11.60;;
21101;SDS011;10709;49.006;12.100;2023-04-07T14:31:39;14.73;;;10.90;;
21101;SDS011;10709;49.006;12.100;2023-04-07T14:34:06;13.40;;;10.53;;
21101;SDS011;10709;49.006;12.100;2023-04-07T14:36:34;12.13;;;9.80;;
21101;SDS011;10709;49.006;12.100;2023-04-07T14:39:00;13.63;;;9.73;;
21101;SDS011;10709;49.006;12.100;2023-04-07T14:41:27;11.77;;;9.30;;
21101;SDS011;10709;49.006;12.100;2023-04-07T14:43:53;12.73;;;9.20;;
21101;SDS011;10709;49.006;12.100;2023-04-07T14:46:24;15.53;;;10.23;;